sensor_id;sensor_type;location;lat;lon;timestamp;P1;durP1;ratioP1;P2;durP2;ratioP2
49858;SDS011;35756;52.346;13.622;2022-11-12T00:02:20;7.45;;;4.38;;
49858;SDS011;35756;52.346;13.622;2022-11-12T00:04:46;8.70;;;4.60;;
49858;SDS011;35756;52.346;13.622;2022-11-12T00:07:11;7.68;;;4.85;;
49858;SDS011;35756;52.346;13.622;2022-11-12T00:09:36;8.05;;;4.30;;
49858;SDS011;35756;52.346;13.622;2022-11-12T00:12:01;7.07;;;4.28;;
49858;SDS011;35756;52.346;13.622;2022-11-12T00:14:27;10.25;;;4.22;;
49858;SDS011;35756;52.346;13.622;2022-11-12T00:16:52;7.45;;;4.13;;
49858;SDS011;35756;52.346;13.622;2022-11-12T00:19:17;8.60;;;4.60;;
49858;SDS011;35756;52.346;13.622;2022-11-12T00:21:43;7.63;;;4.25;;
49858;SDS011;35756;52.346;13.622;2022-11-12T00:24:08;10.52;;;4.72;;
49858;SDS011;35756;52.346;13.622;2022-11-12T00:26:33;9.95;;;4.40;;
49858;SDS011;35756;52.346;13.622;2022-11-12T00:28:59;6.15;;;4.03;;
49858;SDS011;35756;52.346;13.622;2022-11-12T00:31:24;9.10;;;4.43;;
49858;SDS011;35756;52.346;13.622;2022-11-12T00:33:49;5.95;;;4.03;;
49858;SDS011;35756;52.346;13.622;2022-11-12T00:36:14;8.95;;;4.22;;
49858;SDS011;35756;52.346;13.622;2022-11-12T00:38:40;6.53;;;4.25;;
49858;SDS011;35756;52.346;13.622;2022-11-12T00:41:05;5.93;;;4.10;;
49858;SDS011;35756;52.346;13.622;2022-11-12T00:43:30;6.18;;;4.07;;
49858;SDS011;35756;52.346;13.622;2022-11-12T00:45:55;10.32;;;4.25;;
49858;SDS011;35756;52.346;13.622;2022-11-12T00:48:21;7.95;;;4.43;;
49858;SDS011;35756;52.346;13.622;2022-11-12T00:50:46;6.35;;;4.15;;
49858;SDS011;35756;52.346;13.622;2022-11-12T00:53:11;9.60;;;4.55;;
49858;SDS011;35756;52.346;13.622;2022-11-12T00:55:37;7.65;;;4.32;;
49858;SDS011;35756;52.346;13.622;2022-11-12T00:58:02;6.65;;;3.88;;
49858;SDS011;35756;52.346;13.622;2022-11-12T01:00:27;6.47;;;3.88;;
49858;SDS011;35756;52.346;13.622;2022-11-12T01:02:53;6.28;;;3.92;;
49858;SDS011;35756;52.346;13.622;2022-11-12T01:05:18;6.70;;;4.13;;
49858;SDS011;35756;52.346;13.622;2022-11-12T01:07:44;7.47;;;3.83;;
49858;SDS011;35756;52.346;13.622;2022-11-12T01:10:09;7.22;;;3.88;;
49858;SDS011;35756;52.346;13.622;2022-11-12T01:12:35;7.25;;;3.75;;
49858;SDS011;35756;52.346;13.622;2022-11-12T01:15:01;10.68;;;4.05;;
49858;SDS011;35756;52.346;13.622;2022-11-12T01:17:26;6.85;;;4.38;;
49858;SDS011;35756;52.346;13.622;2022-11-12T01:19:51;8.13;;;3.88;;
49858;SDS011;35756;52.346;13.622;2022-11-12T01:22:17;5.30;;;3.50;;
49858;SDS011;35756;52.346;13.622;2022-11-12T01:24:42;7.38;;;3.85;;
49858;SDS011;35756;52.346;13.622;2022-11-12T01:27:07;8.88;;;3.47;;
49858;SDS011;35756;52.346;13.622;2022-11-12T01:29:32;6.38;;;3.45;;
49858;SDS011;35756;52.346;13.622;2022-11-12T01:31:58;5.20;;;3.50;;
49858;SDS011;35756;52.346;13.622;2022-11-12T01:34:24;7.25;;;3.72;;
49858;SDS011;35756;52.346;13.622;2022-11-12T01:36:49;6.68;;;3.85;;
49858;SDS011;35756;52.346;13.622;2022-11-12T01:39:14;7.88;;;4.72;;
49858;SDS011;35756;52.346;13.622;2022-11-12T01:41:40;6.10;;;3.90;;
49858;SDS011;35756;52.346;13.622;2022-11-12T01:44:16;6.47;;;3.60;;
49858;SDS011;35756;52.346;13.622;2022-11-12T01:49:49;6.22;;;4.28;;
49858;SDS011;35756;52.346;13.622;2022-11-12T01:52:39;6.65;;;4.00;;
49858;SDS011;35756;52.346;13.622;2022-11-12T01:55:08;8.63;;;4.20;;
49858;SDS011;35756;52.346;13.622;2022-11-12T01:57:37;5.55;;;3.33;;
49858;SDS011;35756;52.346;13.622;2022-11-12T02:00:07;6.93;;;3.67;;
49858;SDS011;35756;52.346;13.622;2022-11-12T02:02:35;5.88;;;3.83;;
49858;SDS011;35756;52.346;13.622;2022-11-12T02:05:01;8.00;;;4.30;;
49858;SDS011;35756;52.346;13.622;2022-11-12T02:07:27;6.70;;;3.72;;
49858;SDS011;35756;52.346;13.622;2022-11-12T02:09:53;8.93;;;4.32;;
49858;SDS011;35756;52.346;13.622;2022-11-12T02:12:18;7.65;;;4.00;;
49858;SDS011;35756;52.346;13.622;2022-11-12T02:15:03;6.72;;;3.72;;
49858;SDS011;35756;52.346;13.622;2022-11-12T02:17:28;7.38;;;3.55;;
49858;SDS011;35756;52.346;13.622;2022-11-12T02:19:57;6.88;;;4.03;;
49858;SDS011;35756;52.346;13.622;2022-11-12T02:22:23;6.97;;;3.85;;
49858;SDS011;35756;52.346;13.622;2022-11-12T02:24:48;16.05;;;4.40;;
49858;SDS011;35756;52.346;13.622;2022-11-12T02:27:13;6.05;;;3.50;;
49858;SDS011;35756;52.346;13.622;2022-11-12T02:29:39;7.22;;;4.38;;
49858;SDS011;35756;52.346;13.622;2022-11-12T02:32:10;9.77;;;4.75;;
49858;SDS011;35756;52.346;13.622;2022-11-12T02:34:37;7.20;;;4.30;;
49858;SDS011;35756;52.346;13.622;2022-11-12T02:37:03;7.38;;;4.40;;
49858;SDS011;35756;52.346;13.622;2022-11-12T02:39:29;10.18;;;4.85;;
49858;SDS011;35756;52.346;13.622;2022-11-12T02:41:54;8.63;;;4.65;;
49858;SDS011;35756;52.346;13.622;2022-11-12T02:44:20;8.50;;;4.40;;
49858;SDS011;35756;52.346;13.622;2022-11-12T02:46:45;9.18;;;4.72;;
49858;SDS011;35756;52.346;13.622;2022-11-12T02:49:10;6.82;;;4.20;;
49858;SDS011;35756;52.346;13.622;2022-11-12T02:51:35;6.00;;;3.90;;
49858;SDS011;35756;52.346;13.622;2022-11-12T02:54:01;5.68;;;4.15;;
49858;SDS011;35756;52.346;13.622;2022-11-12T02:56:26;8.82;;;4.88;;
49858;SDS011;35756;52.346;13.622;2022-11-12T02:58:51;6.45;;;4.65;;
49858;SDS011;35756;52.346;13.622;2022-11-12T03:01:17;10.20;;;4.78;;
49858;SDS011;35756;52.346;13.622;2022-11-12T03:03:42;7.47;;;4.25;;
49858;SDS011;35756;52.346;13.622;2022-11-12T03:06:07;7.47;;;4.80;;
49858;SDS011;35756;52.346;13.622;2022-11-12T03:08:32;7.20;;;4.70;;
49858;SDS011;35756;52.346;13.622;2022-11-12T03:10:58;9.38;;;4.53;;
49858;SDS011;35756;52.346;13.622;2022-11-12T03:13:23;11.43;;;5.07;;
49858;SDS011;35756;52.346;13.622;2022-11-12T03:15:48;7.35;;;4.47;;
49858;SDS011;35756;52.346;13.622;2022-11-12T03:18:14;9.23;;;4.82;;
49858;SDS011;35756;52.346;13.622;2022-11-12T03:20:39;7.28;;;4.80;;
49858;SDS011;35756;52.346;13.622;2022-11-12T03:23:05;8.60;;;5.18;;
49858;SDS011;35756;52.346;13.622;2022-11-12T03:25:32;10.25;;;5.30;;
49858;SDS011;35756;52.346;13.622;2022-11-12T03:27:58;8.07;;;5.20;;
49858;SDS011;35756;52.346;13.622;2022-11-12T03:30:27;8.52;;;5.20;;
49858;SDS011;35756;52.346;13.622;2022-11-12T03:32:53;10.05;;;5.47;;
49858;SDS011;35756;52.346;13.622;2022-11-12T03:35:19;10.75;;;6.03;;
49858;SDS011;35756;52.346;13.622;2022-11-12T03:37:44;8.48;;;5.70;;
49858;SDS011;35756;52.346;13.622;2022-11-12T03:40:09;11.85;;;6.35;;
49858;SDS011;35756;52.346;13.622;2022-11-12T03:42:35;9.68;;;6.22;;
49858;SDS011;35756;52.346;13.622;2022-11-12T03:45:00;10.75;;;6.15;;
49858;SDS011;35756;52.346;13.622;2022-11-12T03:47:25;10.77;;;6.30;;
49858;SDS011;35756;52.346;13.622;2022-11-12T03:49:51;12.38;;;6.93;;
49858;SDS011;35756;52.346;13.622;2022-11-12T03:52:16;13.98;;;5.78;;
49858;SDS011;35756;52.346;13.622;2022-11-12T03:54:41;10.25;;;6.43;;
49858;SDS011;35756;52.346;13.622;2022-11-12T03:57:07;15.40;;;6.22;;
49858;SDS011;35756;52.346;13.622;2022-11-12T03:59:33;15.43;;;7.30;;
49858;SDS011;35756;52.346;13.622;2022-11-12T04:01:58;13.85;;;6.55;;
49858;SDS011;35756;52.346;13.622;2022-11-12T04:04:23;10.98;;;6.07;;
49858;SDS011;35756;52.346;13.622;2022-11-12T04:07:08;16.52;;;7.13;;
49858;SDS011;35756;52.346;13.622;2022-11-12T04:09:52;13.07;;;7.07;;
49858;SDS011;35756;52.346;13.622;2022-11-12T04:12:18;11.70;;;6.35;;
49858;SDS011;35756;52.346;13.622;2022-11-12T04:17:27;12.85;;;6.50;;
49858;SDS011;35756;52.346;13.622;2022-11-12T04:22:54;14.25;;;6.38;;
49858;SDS011;35756;52.346;13.622;2022-11-12T04:25:19;13.23;;;7.32;;
49858;SDS011;35756;52.346;13.622;2022-11-12T04:30:28;12.15;;;6.50;;
49858;SDS011;35756;52.346;13.622;2022-11-12T04:32:54;12.55;;;7.00;;
49858;SDS011;35756;52.346;13.622;2022-11-12T04:35:21;11.38;;;6.30;;
49858;SDS011;35756;52.346;13.622;2022-11-12T04:37:47;13.63;;;6.68;;
49858;SDS011;35756;52.346;13.622;2022-11-12T04:40:16;13.95;;;6.28;;
49858;SDS011;35756;52.346;13.622;2022-11-12T04:43:05;11.85;;;6.35;;
49858;SDS011;35756;52.346;13.622;2022-11-12T04:45:50;9.95;;;6.45;;
49858;SDS011;35756;52.346;13.622;2022-11-12T04:48:17;15.07;;;6.43;;
49858;SDS011;35756;52.346;13.622;2022-11-12T04:50:43;13.50;;;7.00;;
49858;SDS011;35756;52.346;13.622;2022-11-12T04:53:09;13.52;;;7.35;;
49858;SDS011;35756;52.346;13.622;2022-11-12T04:55:35;9.68;;;6.70;;
49858;SDS011;35756;52.346;13.622;2022-11-12T04:58:00;11.35;;;6.57;;
49858;SDS011;35756;52.346;13.622;2022-11-12T05:00:25;12.50;;;6.95;;
49858;SDS011;35756;52.346;13.622;2022-11-12T05:02:51;12.82;;;6.63;;
49858;SDS011;35756;52.346;13.622;2022-11-12T05:05:16;11.02;;;6.40;;
49858;SDS011;35756;52.346;13.622;2022-11-12T05:07:41;11.52;;;6.28;;
49858;SDS011;35756;52.346;13.622;2022-11-12T05:10:07;13.70;;;6.72;;
49858;SDS011;35756;52.346;13.622;2022-11-12T05:12:33;10.35;;;6.25;;
49858;SDS011;35756;52.346;13.622;2022-11-12T05:14:58;11.77;;;6.55;;
49858;SDS011;35756;52.346;13.622;2022-11-12T05:17:23;10.80;;;6.38;;
49858;SDS011;35756;52.346;13.622;2022-11-12T05:19:48;10.63;;;6.35;;
49858;SDS011;35756;52.346;13.622;2022-11-12T05:22:14;10.75;;;5.68;;
49858;SDS011;35756;52.346;13.622;2022-11-12T05:24:40;10.13;;;5.97;;
49858;SDS011;35756;52.346;13.622;2022-11-12T05:27:14;9.90;;;6.05;;
49858;SDS011;35756;52.346;13.622;2022-11-12T05:29:40;10.88;;;5.85;;
49858;SDS011;35756;52.346;13.622;2022-11-12T05:32:06;10.48;;;5.85;;
49858;SDS011;35756;52.346;13.622;2022-11-12T05:34:33;10.60;;;6.03;;
49858;SDS011;35756;52.346;13.622;2022-11-12T05:36:58;8.35;;;5.53;;
49858;SDS011;35756;52.346;13.622;2022-11-12T05:39:24;12.25;;;6.00;;
49858;SDS011;35756;52.346;13.622;2022-11-12T05:41:49;10.07;;;5.70;;
49858;SDS011;35756;52.346;13.622;2022-11-12T05:44:15;12.45;;;6.57;;
49858;SDS011;35756;52.346;13.622;2022-11-12T05:46:40;11.32;;;5.55;;
49858;SDS011;35756;52.346;13.622;2022-11-12T05:49:06;11.88;;;6.10;;
49858;SDS011;35756;52.346;13.622;2022-11-12T05:51:31;11.15;;;5.93;;
49858;SDS011;35756;52.346;13.622;2022-11-12T05:53:56;9.25;;;6.00;;
49858;SDS011;35756;52.346;13.622;2022-11-12T05:56:22;11.68;;;6.22;;
49858;SDS011;35756;52.346;13.622;2022-11-12T05:58:47;9.57;;;5.90;;
49858;SDS011;35756;52.346;13.622;2022-11-12T06:01:13;13.45;;;6.30;;
49858;SDS011;35756;52.346;13.622;2022-11-12T06:03:38;12.88;;;7.18;;
49858;SDS011;35756;52.346;13.622;2022-11-12T06:06:03;13.43;;;6.82;;
49858;SDS011;35756;52.346;13.622;2022-11-12T06:08:29;10.88;;;6.15;;
49858;SDS011;35756;52.346;13.622;2022-11-12T06:10:54;9.38;;;6.25;;
49858;SDS011;35756;52.346;13.622;2022-11-12T06:13:20;9.88;;;6.00;;
49858;SDS011;35756;52.346;13.622;2022-11-12T06:15:47;12.20;;;6.93;;
49858;SDS011;35756;52.346;13.622;2022-11-12T06:18:12;10.10;;;6.40;;
49858;SDS011;35756;52.346;13.622;2022-11-12T06:20:38;10.98;;;6.25;;
49858;SDS011;35756;52.346;13.622;2022-11-12T06:23:03;11.32;;;6.10;;
49858;SDS011;35756;52.346;13.622;2022-11-12T06:25:29;13.38;;;6.80;;
49858;SDS011;35756;52.346;13.622;2022-11-12T06:27:54;15.57;;;6.63;;
49858;SDS011;35756;52.346;13.622;2022-11-12T06:30:19;19.75;;;9.05;;
49858;SDS011;35756;52.346;13.622;2022-11-12T06:32:48;16.80;;;8.30;;
49858;SDS011;35756;52.346;13.622;2022-11-12T06:35:14;16.27;;;8.13;;
49858;SDS011;35756;52.346;13.622;2022-11-12T06:37:40;21.38;;;8.07;;
49858;SDS011;35756;52.346;13.622;2022-11-12T06:40:06;18.98;;;9.02;;
49858;SDS011;35756;52.346;13.622;2022-11-12T06:42:32;18.38;;;8.05;;
49858;SDS011;35756;52.346;13.622;2022-11-12T06:44:57;16.15;;;8.10;;
49858;SDS011;35756;52.346;13.622;2022-11-12T06:47:22;17.60;;;8.35;;
49858;SDS011;35756;52.346;13.622;2022-11-12T06:49:48;18.70;;;7.85;;
49858;SDS011;35756;52.346;13.622;2022-11-12T06:52:13;14.00;;;7.75;;
49858;SDS011;35756;52.346;13.622;2022-11-12T06:54:39;12.30;;;7.28;;
49858;SDS011;35756;52.346;13.622;2022-11-12T06:57:04;15.07;;;7.15;;
49858;SDS011;35756;52.346;13.622;2022-11-12T06:59:29;18.13;;;7.55;;
49858;SDS011;35756;52.346;13.622;2022-11-12T07:01:55;14.43;;;6.65;;
49858;SDS011;35756;52.346;13.622;2022-11-12T07:04:20;12.50;;;6.80;;
49858;SDS011;35756;52.346;13.622;2022-11-12T07:06:45;17.25;;;7.57;;
49858;SDS011;35756;52.346;13.622;2022-11-12T07:09:11;12.77;;;7.03;;
49858;SDS011;35756;52.346;13.622;2022-11-12T07:11:36;14.93;;;6.35;;
49858;SDS011;35756;52.346;13.622;2022-11-12T07:14:04;9.98;;;5.95;;
49858;SDS011;35756;52.346;13.622;2022-11-12T07:16:30;13.15;;;6.57;;
49858;SDS011;35756;52.346;13.622;2022-11-12T07:18:55;10.90;;;6.38;;
49858;SDS011;35756;52.346;13.622;2022-11-12T07:21:20;11.93;;;6.13;;
49858;SDS011;35756;52.346;13.622;2022-11-12T07:23:46;12.98;;;6.50;;
49858;SDS011;35756;52.346;13.622;2022-11-12T07:26:15;10.50;;;6.30;;
49858;SDS011;35756;52.346;13.622;2022-11-12T07:28:42;12.63;;;6.07;;
49858;SDS011;35756;52.346;13.622;2022-11-12T07:31:12;12.07;;;7.15;;
49858;SDS011;35756;52.346;13.622;2022-11-12T07:33:38;12.90;;;7.20;;
49858;SDS011;35756;52.346;13.622;2022-11-12T07:36:04;11.18;;;6.28;;
49858;SDS011;35756;52.346;13.622;2022-11-12T07:38:32;12.38;;;6.85;;
49858;SDS011;35756;52.346;13.622;2022-11-12T07:43:29;14.75;;;7.80;;
49858;SDS011;35756;52.346;13.622;2022-11-12T07:45:58;16.45;;;9.02;;
49858;SDS011;35756;52.346;13.622;2022-11-12T07:48:24;21.92;;;12.93;;
49858;SDS011;35756;52.346;13.622;2022-11-12T07:50:50;29.85;;;16.90;;
49858;SDS011;35756;52.346;13.622;2022-11-12T07:53:15;21.48;;;13.68;;
49858;SDS011;35756;52.346;13.622;2022-11-12T07:55:40;19.80;;;10.68;;
49858;SDS011;35756;52.346;13.622;2022-11-12T07:58:06;17.23;;;9.98;;
49858;SDS011;35756;52.346;13.622;2022-11-12T08:00:31;20.70;;;10.05;;
49858;SDS011;35756;52.346;13.622;2022-11-12T08:02:58;19.95;;;10.60;;
49858;SDS011;35756;52.346;13.622;2022-11-12T08:05:24;16.83;;;9.82;;
49858;SDS011;35756;52.346;13.622;2022-11-12T08:07:49;18.83;;;9.25;;
49858;SDS011;35756;52.346;13.622;2022-11-12T08:10:14;16.67;;;9.45;;
49858;SDS011;35756;52.346;13.622;2022-11-12T08:12:40;21.92;;;10.32;;
49858;SDS011;35756;52.346;13.622;2022-11-12T08:15:05;21.15;;;10.13;;
49858;SDS011;35756;52.346;13.622;2022-11-12T08:17:30;23.77;;;10.05;;
49858;SDS011;35756;52.346;13.622;2022-11-12T08:19:56;21.60;;;9.70;;
49858;SDS011;35756;52.346;13.622;2022-11-12T08:22:21;19.73;;;10.30;;
49858;SDS011;35756;52.346;13.622;2022-11-12T08:24:46;18.63;;;10.45;;
49858;SDS011;35756;52.346;13.622;2022-11-12T08:27:12;18.63;;;10.35;;
49858;SDS011;35756;52.346;13.622;2022-11-12T08:29:37;23.02;;;10.38;;
49858;SDS011;35756;52.346;13.622;2022-11-12T08:32:02;20.27;;;10.90;;
49858;SDS011;35756;52.346;13.622;2022-11-12T08:34:27;17.52;;;10.10;;
49858;SDS011;35756;52.346;13.622;2022-11-12T08:36:53;19.52;;;9.88;;
49858;SDS011;35756;52.346;13.622;2022-11-12T08:39:18;15.23;;;10.43;;
49858;SDS011;35756;52.346;13.622;2022-11-12T08:41:44;19.10;;;10.30;;
49858;SDS011;35756;52.346;13.622;2022-11-12T08:44:10;18.65;;;9.82;;
49858;SDS011;35756;52.346;13.622;2022-11-12T08:46:35;15.57;;;9.23;;
49858;SDS011;35756;52.346;13.622;2022-11-12T08:49:00;17.05;;;10.05;;
49858;SDS011;35756;52.346;13.622;2022-11-12T08:51:25;14.38;;;9.32;;
49858;SDS011;35756;52.346;13.622;2022-11-12T08:53:51;16.35;;;8.77;;
49858;SDS011;35756;52.346;13.622;2022-11-12T08:56:16;13.00;;;8.23;;
49858;SDS011;35756;52.346;13.622;2022-11-12T08:58:41;10.63;;;7.15;;
49858;SDS011;35756;52.346;13.622;2022-11-12T09:01:07;10.07;;;6.60;;
49858;SDS011;35756;52.346;13.622;2022-11-12T09:03:32;8.70;;;5.53;;
49858;SDS011;35756;52.346;13.622;2022-11-12T09:06:00;12.35;;;7.20;;
49858;SDS011;35756;52.346;13.622;2022-11-12T09:08:26;12.55;;;11.30;;
49858;SDS011;35756;52.346;13.622;2022-11-12T09:10:52;14.70;;;13.38;;
49858;SDS011;35756;52.346;13.622;2022-11-12T09:13:17;18.08;;;16.88;;
49858;SDS011;35756;52.346;13.622;2022-11-12T09:15:43;31.55;;;28.88;;
49858;SDS011;35756;52.346;13.622;2022-11-12T09:18:13;15.02;;;13.60;;
49858;SDS011;35756;52.346;13.622;2022-11-12T09:20:39;16.35;;;14.80;;
49858;SDS011;35756;52.346;13.622;2022-11-12T09:23:09;15.60;;;14.20;;
49858;SDS011;35756;52.346;13.622;2022-11-12T09:25:35;16.27;;;7.72;;
49858;SDS011;35756;52.346;13.622;2022-11-12T09:28:05;12.88;;;11.57;;
49858;SDS011;35756;52.346;13.622;2022-11-12T09:30:41;13.05;;;11.52;;
49858;SDS011;35756;52.346;13.622;2022-11-12T09:35:39;9.73;;;6.78;;
49858;SDS011;35756;52.346;13.622;2022-11-12T09:38:05;12.98;;;11.63;;
49858;SDS011;35756;52.346;13.622;2022-11-12T09:43:20;10.50;;;6.97;;
49858;SDS011;35756;52.346;13.622;2022-11-12T09:45:49;11.60;;;6.20;;
49858;SDS011;35756;52.346;13.622;2022-11-12T09:48:22;9.15;;;6.95;;
49858;SDS011;35756;52.346;13.622;2022-11-12T09:50:57;9.35;;;6.50;;
49858;SDS011;35756;52.346;13.622;2022-11-12T09:56:13;9.95;;;6.68;;
49858;SDS011;35756;52.346;13.622;2022-11-12T09:58:39;11.00;;;7.88;;
49858;SDS011;35756;52.346;13.622;2022-11-12T10:01:09;8.00;;;6.80;;
49858;SDS011;35756;52.346;13.622;2022-11-12T10:03:58;14.02;;;11.25;;
49858;SDS011;35756;52.346;13.622;2022-11-12T10:06:27;12.75;;;10.88;;
49858;SDS011;35756;52.346;13.622;2022-11-12T10:09:00;9.95;;;8.95;;
49858;SDS011;35756;52.346;13.622;2022-11-12T10:11:44;14.77;;;13.43;;
49858;SDS011;35756;52.346;13.622;2022-11-12T10:17:36;15.77;;;13.73;;
49858;SDS011;35756;52.346;13.622;2022-11-12T10:22:53;15.63;;;13.32;;
49858;SDS011;35756;52.346;13.622;2022-11-12T10:25:25;17.67;;;15.40;;
49858;SDS011;35756;52.346;13.622;2022-11-12T10:27:52;18.42;;;12.15;;
49858;SDS011;35756;52.346;13.622;2022-11-12T10:30:20;27.90;;;25.42;;
49858;SDS011;35756;52.346;13.622;2022-11-12T10:32:48;22.80;;;18.88;;
49858;SDS011;35756;52.346;13.622;2022-11-12T10:35:15;19.63;;;17.63;;
49858;SDS011;35756;52.346;13.622;2022-11-12T10:37:46;26.70;;;20.33;;
49858;SDS011;35756;52.346;13.622;2022-11-12T10:45:24;27.35;;;21.40;;
49858;SDS011;35756;52.346;13.622;2022-11-12T10:47:50;17.30;;;14.75;;
49858;SDS011;35756;52.346;13.622;2022-11-12T10:50:24;26.08;;;20.77;;
49858;SDS011;35756;52.346;13.622;2022-11-12T10:52:57;26.90;;;24.08;;
49858;SDS011;35756;52.346;13.622;2022-11-12T10:55:26;27.35;;;24.80;;
49858;SDS011;35756;52.346;13.622;2022-11-12T11:00:33;40.92;;;37.63;;
49858;SDS011;35756;52.346;13.622;2022-11-12T11:02:59;45.72;;;42.33;;
49858;SDS011;35756;52.346;13.622;2022-11-12T11:07:53;113.22;;;106.88;;
49858;SDS011;35756;52.346;13.622;2022-11-12T11:10:23;59.72;;;55.20;;
49858;SDS011;35756;52.346;13.622;2022-11-12T11:13:07;76.07;;;71.35;;
49858;SDS011;35756;52.346;13.622;2022-11-12T11:15:56;62.92;;;58.13;;
49858;SDS011;35756;52.346;13.622;2022-11-12T11:18:30;60.35;;;55.70;;
49858;SDS011;35756;52.346;13.622;2022-11-12T11:24:04;176.95;;;168.50;;
49858;SDS011;35756;52.346;13.622;2022-11-12T11:29:15;75.97;;;71.57;;
49858;SDS011;35756;52.346;13.622;2022-11-12T11:31:50;347.60;;;331.73;;
49858;SDS011;35756;52.346;13.622;2022-11-12T11:37:28;345.15;;;328.67;;
49858;SDS011;35756;52.346;13.622;2022-11-12T11:43:00;281.58;;;268.92;;
49858;SDS011;35756;52.346;13.622;2022-11-12T11:45:54;252.65;;;240.68;;
49858;SDS011;35756;52.346;13.622;2022-11-12T11:51:42;218.68;;;208.55;;
49858;SDS011;35756;52.346;13.622;2022-11-12T11:54:41;387.73;;;369.52;;
49858;SDS011;35756;52.346;13.622;2022-11-12T11:57:57;205.25;;;195.73;;
49858;SDS011;35756;52.346;13.622;2022-11-12T12:02:55;366.40;;;349.30;;
49858;SDS011;35756;52.346;13.622;2022-11-12T12:05:42;370.15;;;352.23;;
49858;SDS011;35756;52.346;13.622;2022-11-12T12:11:11;228.80;;;218.38;;
49858;SDS011;35756;52.346;13.622;2022-11-12T12:13:54;220.23;;;209.85;;
49858;SDS011;35756;52.346;13.622;2022-11-12T12:16:51;227.23;;;217.15;;
49858;SDS011;35756;52.346;13.622;2022-11-12T12:19:26;290.65;;;277.67;;
49858;SDS011;35756;52.346;13.622;2022-11-12T12:22:00;276.77;;;264.85;;
49858;SDS011;35756;52.346;13.622;2022-11-12T12:24:39;251.15;;;239.60;;
49858;SDS011;35756;52.346;13.622;2022-11-12T12:29:57;251.48;;;240.52;;
49858;SDS011;35756;52.346;13.622;2022-11-12T12:32:45;348.33;;;331.95;;
49858;SDS011;35756;52.346;13.622;2022-11-12T12:35:20;381.48;;;363.67;;
49858;SDS011;35756;52.346;13.622;2022-11-12T12:37:56;384.50;;;367.23;;
49858;SDS011;35756;52.346;13.622;2022-11-12T12:40:32;380.00;;;362.75;;
49858;SDS011;35756;52.346;13.622;2022-11-12T12:43:00;405.30;;;386.48;;
49858;SDS011;35756;52.346;13.622;2022-11-12T12:48:10;410.35;;;391.20;;
49858;SDS011;35756;52.346;13.622;2022-11-12T12:50:38;481.98;;;458.20;;
49858;SDS011;35756;52.346;13.622;2022-11-12T12:53:14;535.83;;;510.38;;
49858;SDS011;35756;52.346;13.622;2022-11-12T12:55:47;433.00;;;412.67;;
49858;SDS011;35756;52.346;13.622;2022-11-12T12:58:17;520.83;;;495.13;;
49858;SDS011;35756;52.346;13.622;2022-11-12T13:00:51;561.33;;;533.50;;
49858;SDS011;35756;52.346;13.622;2022-11-12T13:06:22;491.25;;;467.52;;
49858;SDS011;35756;52.346;13.622;2022-11-12T13:19:34;113.72;;;108.10;;
49858;SDS011;35756;52.346;13.622;2022-11-12T13:35:13;229.05;;;218.90;;
49858;SDS011;35756;52.346;13.622;2022-11-12T13:40:25;126.88;;;120.43;;
49858;SDS011;35756;52.346;13.622;2022-11-12T13:42:53;176.13;;;167.88;;
49858;SDS011;35756;52.346;13.622;2022-11-12T13:45:21;222.23;;;211.68;;
49858;SDS011;35756;52.346;13.622;2022-11-12T13:47:47;152.07;;;144.77;;
49858;SDS011;35756;52.346;13.622;2022-11-12T13:50:15;72.53;;;68.05;;
49858;SDS011;35756;52.346;13.622;2022-11-12T13:52:43;50.50;;;47.20;;
49858;SDS011;35756;52.346;13.622;2022-11-12T13:57:40;43.65;;;40.05;;
49858;SDS011;35756;52.346;13.622;2022-11-12T14:00:06;46.15;;;43.10;;
49858;SDS011;35756;52.346;13.622;2022-11-12T14:02:33;37.72;;;34.90;;
49858;SDS011;35756;52.346;13.622;2022-11-12T14:05:00;33.80;;;31.70;;
49858;SDS011;35756;52.346;13.622;2022-11-12T14:12:43;28.02;;;25.45;;
49858;SDS011;35756;52.346;13.622;2022-11-12T14:15:28;31.10;;;28.15;;
49858;SDS011;35756;52.346;13.622;2022-11-12T14:18:10;22.73;;;17.52;;
49858;SDS011;35756;52.346;13.622;2022-11-12T14:20:40;22.60;;;20.33;;
49858;SDS011;35756;52.346;13.622;2022-11-12T14:23:13;28.73;;;17.23;;
49858;SDS011;35756;52.346;13.622;2022-11-12T14:25:46;21.98;;;17.42;;
49858;SDS011;35756;52.346;13.622;2022-11-12T14:28:27;23.20;;;18.02;;
49858;SDS011;35756;52.346;13.622;2022-11-12T14:30:56;20.98;;;16.20;;
49858;SDS011;35756;52.346;13.622;2022-11-12T14:33:23;20.02;;;17.13;;
49858;SDS011;35756;52.346;13.622;2022-11-12T14:35:50;18.08;;;14.95;;
49858;SDS011;35756;52.346;13.622;2022-11-12T14:41:02;22.90;;;13.70;;
49858;SDS011;35756;52.346;13.622;2022-11-12T14:43:32;15.82;;;9.15;;
49858;SDS011;35756;52.346;13.622;2022-11-12T14:46:07;13.75;;;8.95;;
49858;SDS011;35756;52.346;13.622;2022-11-12T14:48:43;20.10;;;10.63;;
49858;SDS011;35756;52.346;13.622;2022-11-12T14:51:10;17.77;;;11.77;;
49858;SDS011;35756;52.346;13.622;2022-11-12T14:53:37;14.68;;;11.40;;
49858;SDS011;35756;52.346;13.622;2022-11-12T14:56:05;18.58;;;9.98;;
49858;SDS011;35756;52.346;13.622;2022-11-12T14:58:31;12.50;;;7.63;;
49858;SDS011;35756;52.346;13.622;2022-11-12T15:00:57;11.80;;;8.57;;
49858;SDS011;35756;52.346;13.622;2022-11-12T15:03:24;16.05;;;8.45;;
49858;SDS011;35756;52.346;13.622;2022-11-12T15:05:58;24.58;;;11.68;;
49858;SDS011;35756;52.346;13.622;2022-11-12T15:08:33;15.25;;;8.02;;
49858;SDS011;35756;52.346;13.622;2022-11-12T15:11:13;16.80;;;11.27;;
49858;SDS011;35756;52.346;13.622;2022-11-12T15:13:39;18.38;;;10.00;;
49858;SDS011;35756;52.346;13.622;2022-11-12T15:16:05;23.05;;;13.63;;
49858;SDS011;35756;52.346;13.622;2022-11-12T15:18:32;34.70;;;20.15;;
49858;SDS011;35756;52.346;13.622;2022-11-12T15:21:08;111.30;;;53.53;;
49858;SDS011;35756;52.346;13.622;2022-11-12T15:23:51;88.32;;;43.33;;
49858;SDS011;35756;52.346;13.622;2022-11-12T15:26:51;78.88;;;40.28;;
49858;SDS011;35756;52.346;13.622;2022-11-12T15:31:42;78.93;;;39.15;;
49858;SDS011;35756;52.346;13.622;2022-11-12T15:34:23;65.70;;;33.85;;
49858;SDS011;35756;52.346;13.622;2022-11-12T15:36:56;80.72;;;48.45;;
49858;SDS011;35756;52.346;13.622;2022-11-12T15:39:24;123.38;;;65.95;;
49858;SDS011;35756;52.346;13.622;2022-11-12T15:41:55;137.95;;;70.55;;
49858;SDS011;35756;52.346;13.622;2022-11-12T15:44:21;135.27;;;65.90;;
49858;SDS011;35756;52.346;13.622;2022-11-12T15:46:47;129.70;;;66.03;;
49858;SDS011;35756;52.346;13.622;2022-11-12T15:49:12;122.25;;;63.58;;
49858;SDS011;35756;52.346;13.622;2022-11-12T15:51:37;117.13;;;62.10;;
49858;SDS011;35756;52.346;13.622;2022-11-12T15:54:03;102.72;;;52.47;;
49858;SDS011;35756;52.346;13.622;2022-11-12T15:56:28;103.72;;;51.45;;
49858;SDS011;35756;52.346;13.622;2022-11-12T15:58:54;107.40;;;54.00;;
49858;SDS011;35756;52.346;13.622;2022-11-12T16:01:19;94.38;;;48.85;;
49858;SDS011;35756;52.346;13.622;2022-11-12T16:03:44;102.28;;;49.90;;
49858;SDS011;35756;52.346;13.622;2022-11-12T16:06:10;85.65;;;41.53;;
49858;SDS011;35756;52.346;13.622;2022-11-12T16:08:35;70.18;;;37.30;;
49858;SDS011;35756;52.346;13.622;2022-11-12T16:11:01;72.43;;;35.05;;